»·PEaware :: USC243 KLAS-KMRY

USC243 :: KLAS-KMRY

FLIGHT INFORMATION

Flight Status: Arrived
Operator: Unknown
More flights by this operator :: More flights under this callsign
Pilot: Andy P. (22680)
Aircraft: GATES LEARJET LEARJET 35/36
(LJ35)
More flights by this aircraft type
Origin: KLAS McCarran Intl
United States
Destination: KMRY Monterey Peninsula
United States
More flights between these airports :: More routes between these airports
Route: +SHEAD1 KENNO BIH PXN SNS
File this flight plan on PilotEdge
Remarks:
Altitude:
(Current/Filed)
36,000ft
Speed:
(Current/Filed)
465kts
Departed: 20-Sep-19 01:03 PM
Arrived: 20-Sep-19 02:08 PM
Distance/Time
Traveled:
325nm/1:05
Distance/Time
To Go:
Arrived

Flight Plot

Page will automatically refresh every two minutes.

Flight plan parsing failed; only flown route is shown


Map Options




Map Legend


Flown Route
Filed Route
Departure Airport
Arrival Airport
Navaid (VOR, NDB)
Fix

Horizontal Profiles

Position Reports

Time Latitude Longitude Heading Altitude Ground
Speed
20-Sep-19 12:38 36.082380 -115.125610 90 2184ft 0kts
20-Sep-19 12:39 36.082380 -115.125610 90 2184ft 0kts
20-Sep-19 12:40 36.082380 -115.125610 90 2184ft 0kts
20-Sep-19 12:41 36.082380 -115.125610 90 2184ft 0kts
20-Sep-19 12:42 36.082380 -115.125610 90 2184ft 0kts
20-Sep-19 12:43 36.082380 -115.125607 90 2184ft 0kts
20-Sep-19 12:44 36.082380 -115.125606 90 2184ft 0kts
20-Sep-19 12:45 36.082380 -115.125605 90 2184ft 0kts
20-Sep-19 12:46 36.082380 -115.125602 90 2184ft 0kts
20-Sep-19 12:47 36.082380 -115.125599 90 2184ft 0kts
20-Sep-19 12:48 36.082380 -115.125597 90 2184ft 0kts
20-Sep-19 12:49 36.082380 -115.125594 90 2184ft 0kts
20-Sep-19 12:50 36.082380 -115.125591 90 2184ft 0kts
20-Sep-19 12:51 36.082380 -115.125588 90 2184ft 0kts
20-Sep-19 12:52 36.082380 -115.125585 90 2184ft 0kts
20-Sep-19 12:53 36.082380 -115.125583 90 2184ft 0kts
20-Sep-19 12:54 36.082380 -115.125580 90 2184ft 0kts
20-Sep-19 12:55 36.082380 -115.125577 90 2184ft 0kts
20-Sep-19 12:56 36.082092 -115.125831 245 2184ft 7kts
20-Sep-19 12:57 36.082092 -115.125831 245 2184ft 7kts
20-Sep-19 12:58 36.081310 -115.126346 180 2184ft 13kts
20-Sep-19 12:59 36.078302 -115.123852 91 2184ft 16kts
20-Sep-19 13:00 36.077501 -115.121534 132 2184ft 0kts
20-Sep-19 13:01 36.077500 -115.121532 132 2184ft 0kts
20-Sep-19 13:02 36.076364 -115.126917 272 2184ft 79kts
20-Sep-19 13:03 36.077241 -115.176789 273 2972ft 162kts
20-Sep-19 13:04 36.077839 -115.241204 270 5155ft 199kts
20-Sep-19 13:05 36.043617 -115.276500 178 6667ft 194kts
20-Sep-19 13:06 35.989666 -115.291187 204 7047ft 210kts
20-Sep-19 13:07 35.940015 -115.333404 237 7804ft 225kts
20-Sep-19 13:08 35.896056 -115.396504 236 9035ft 246kts
20-Sep-19 13:09 35.887241 -115.479029 274 10189ft 263kts
20-Sep-19 13:10 35.889313 -115.576672 272 13601ft 320kts
20-Sep-19 13:11 35.891351 -115.693325 272 16994ft 347kts
20-Sep-19 13:12 35.893329 -115.813618 271 20004ft 356kts
20-Sep-19 13:13 35.895260 -115.937099 271 22255ft 364kts
20-Sep-19 13:14 35.951116 -116.039652 315 23982ft 385kts
20-Sep-19 13:15 36.031697 -116.127874 313 25408ft 389kts
20-Sep-19 13:16 36.111361 -116.219511 313 26588ft 392kts
20-Sep-19 13:17 36.192731 -116.313674 313 28534ft 406kts
20-Sep-19 13:18 36.275126 -116.409309 313 30910ft 403kts
20-Sep-19 13:19 36.356719 -116.504323 313 32954ft 401kts
20-Sep-19 13:20 36.437942 -116.599191 312 34795ft 398kts
20-Sep-19 13:21 36.518116 -116.693083 312 35979ft 391kts
20-Sep-19 13:22 36.603317 -116.776960 324 36054ft 396kts
20-Sep-19 13:23 36.697421 -116.849141 323 36056ft 397kts
20-Sep-19 13:24 36.791785 -116.921120 324 36057ft 398kts
20-Sep-19 13:25 36.887147 -116.993968 324 36064ft 408kts
20-Sep-19 13:26 36.984849 -117.068800 324 36073ft 417kts
20-Sep-19 13:27 37.084978 -117.145727 324 36076ft 425kts
20-Sep-19 13:28 37.186308 -117.223822 325 36078ft 430kts
20-Sep-19 13:29 37.287264 -117.304179 316 36082ft 427kts
20-Sep-19 13:30 37.319709 -117.440506 270 36093ft 426kts
20-Sep-19 13:31 37.321192 -117.589777 275 36094ft 426kts
20-Sep-19 13:32 37.331370 -117.737779 277 36083ft 426kts
20-Sep-19 13:33 37.342350 -117.886196 277 36082ft 426kts
20-Sep-19 13:34 37.353236 -118.034523 277 36078ft 427kts
20-Sep-19 13:35 37.364001 -118.183517 277 36076ft 429kts
20-Sep-19 13:36 37.374620 -118.333138 277 36076ft 430kts
20-Sep-19 13:37 37.349555 -118.480837 253 36080ft 440kts
20-Sep-19 13:38 37.309279 -118.625961 254 36089ft 440kts
20-Sep-19 13:39 37.270225 -118.771818 255 36107ft 440kts
20-Sep-19 13:40 37.231268 -118.917640 255 36143ft 440kts
20-Sep-19 13:41 37.192139 -119.063520 254 36117ft 442kts
20-Sep-19 13:42 37.152773 -119.209491 254 35598ft 434kts
20-Sep-19 13:43 37.115584 -119.346570 255 33817ft 419kts
20-Sep-19 13:44 37.076338 -119.490768 254 32025ft 453kts
20-Sep-19 13:45 37.035734 -119.638655 254 30225ft 437kts
20-Sep-19 13:46 36.996130 -119.782419 254 28427ft 440kts
20-Sep-19 13:47 36.955605 -119.928697 254 26634ft 450kts
20-Sep-19 13:48 36.913998 -120.078008 254 24836ft 461kts
20-Sep-19 13:49 36.871237 -120.230547 253 23037ft 463kts
20-Sep-19 13:50 36.829261 -120.379373 253 21242ft 447kts
20-Sep-19 13:51 36.788425 -120.523460 253 19441ft 436kts
20-Sep-19 13:52 36.749149 -120.661218 253 17641ft 409kts
20-Sep-19 13:53 36.715568 -120.794649 263 15841ft 399kts
20-Sep-19 13:54 36.706840 -120.922229 268 14026ft 312kts
20-Sep-19 13:55 36.700620 -121.025124 268 12224ft 292kts
20-Sep-19 13:56 36.694558 -121.123921 268 10409ft 282kts
20-Sep-19 13:57 36.688471 -121.221646 267 8604ft 285kts
20-Sep-19 13:58 36.682229 -121.319937 267 6803ft 273kts
20-Sep-19 13:59 36.676661 -121.405517 264 5083ft 242kts
20-Sep-19 14:00 36.653744 -121.485438 248 4657ft 250kts
20-Sep-19 14:01 36.624969 -121.564646 247 4329ft 234kts
20-Sep-19 14:02 36.599673 -121.628998 248 3213ft 169kts
20-Sep-19 14:04 36.584964 -121.677977 254 2161ft 137kts
20-Sep-19 14:05 36.574936 -121.722967 261 1629ft 133kts
20-Sep-19 14:06 36.569165 -121.768836 274 1280ft 127kts
20-Sep-19 14:07 36.575964 -121.811545 290 657ft 123kts
20-Sep-19 14:08 36.587111 -121.844665 291 208ft 29kts
20-Sep-19 14:09 36.586828 -121.846299 291 208ft 0kts
20-Sep-19 14:10 36.589287 -121.853678 283 208ft 31kts
20-Sep-19 14:11 36.588714 -121.858267 147 208ft 1kts
20-Sep-19 14:12 36.588673 -121.858201 104 208ft 0kts

Navigation Log

Ident Type
Flight plan parsing failed, navigation log unavailable